Airfield :
LOGIN :

Register | Disclaimer

   EN    FR    IT 

 










Legend :    VFR   Marginal VFR   IFR   Intensive IFR   Very Intensive IFR
Visi :
Ceiling :
>= 8 km
>= 3000ft
5 to 8 km
1000 to 3000 ft
1500m to 5 km
500 to 1000 ft
800 to 1500m
200 to 500 ft
< 800m
< 200 ft
Symbols :   Thunderstorms  Fog  Heavy snow  Heavy precipitations  Wind > 20 kt
SIGMETs :     Misc.  Thunderstorms  Icing  Turbulence  Mountain Waves  Volcanic Ashes







- Airport Elevation : 3855 ft


DAAY - Mecheria

CURRENT METAR :
  • 250100Z 36008KT 9999 FEW030 SCT233 17/10 Q1017

EXPIRED METARs :
  • 250000Z 01008KT 9999 FEW030 SCT233 18/10 Q1017
  • 242300Z 36012KT 9999 FEW030 SCT233 18/11 Q1017

TAF TAF DAAY
Valid from the 24 at 18:00 until the 25 at 03:00 UTC


241700Z 2418/2503 28015KT 9999 SCT033 SCT233
PROB40
TEMPO 2418/2422 6000 -TSRA FEW030CB BKN033
No reported NOTAMs for that airfield.
2 SIGMETs reported for the Alger FIR (DAAA) :
 
Embedded thunderstorms
DAAA SIGMET 7 VALID 242200/242400 DAMM
DAAA ALGER FIR EMBD TS OBS E OF LINE N3127 W00045 - N3758 E00555 TOP FL400 MOV NE NC=
Embedded thunderstorms
DAAA SIGMET 1 VALID 250000/250400 DAMM
DAAA ALGER FIR EMBD TS OBS E OF LINE N3724 E00518 - N3258 E00304 TOP FL400 MOV NE NC=



MET'MAP, your aeronautical weather chart ! - Copyright ORBIFLY December 2007 - Disclaimer

ORBIFLY MET'MAP TEAM :

Programming & Development : Alexandra Zaïnal
Concept & Development : Baudouin d'Aumeries
Co-Development & Prog : Marc-Olivier Méhu
Technical & hardware support : Manuel Goepfert

Contact : metmap@orbifly.com




SOURCES & CREDITS :

   NOAA